Terminal Aerodrome Forecast
Issued by NWS Wilmington, OH

Current Version | Previous Version | Graphics & Text | Print | Product List | Glossary On
Versions: 1 2 3 4 5 6 7 8 9 10 11 12 13 14 15 16 17 18 19 20 21 22 23 24 25 26 27
000
FTUS41 KILN 180534
TAFCVG
TAF
KCVG 180534Z 1806/1912 22007KT P6SM SCT250
     FM181200 21009KT P6SM BKN200
     FM181800 23010KT P6SM OVC150
     FM190000 21005KT P6SM VCSH OVC035
     FM190400 24005KT P6SM OVC025
     FM190800 25004KT 5SM BR OVC018=

USA.gov is the U.S. government's official web portal to all federal, state and local government web resources and services.